createdAt,value
2023-03-01T00:00:41.594Z,15.57
2023-03-01T00:01:43.775Z,13.13
2023-03-01T00:02:46.154Z,14.90
2023-03-01T00:04:01.992Z,15.43
2023-03-01T00:05:15.687Z,14.53
2023-03-01T00:06:17.465Z,14.47
2023-03-01T00:07:18.906Z,14.53
2023-03-01T00:08:20.386Z,15.27
2023-03-01T00:09:25.384Z,14.07
2023-03-01T00:10:28.374Z,15.37
2023-03-01T00:11:40.523Z,14.40
2023-03-01T00:12:52.447Z,15.90
2023-03-01T00:14:06.170Z,16.63
2023-03-01T00:15:11.989Z,15.53
2023-03-01T00:16:17.880Z,15.87
2023-03-01T00:17:22.832Z,14.23
2023-03-01T00:18:25.094Z,15.97
2023-03-01T00:19:29.660Z,14.87
2023-03-01T00:20:34.260Z,14.50
2023-03-01T00:21:39.343Z,14.70
2023-03-01T00:22:40.988Z,13.63
2023-03-01T00:23:49.848Z,17.10
2023-03-01T00:24:55.244Z,14.47
2023-03-01T00:25:57.356Z,13.80
2023-03-01T00:26:59.083Z,14.00
2023-03-01T00:28:11.343Z,13.70
2023-03-01T00:29:25.164Z,14.93
2023-03-01T00:30:27.448Z,14.33
2023-03-01T00:31:30.533Z,14.03
2023-03-01T00:32:41.317Z,16.63
2023-03-01T00:34:01.310Z,15.00
2023-03-01T00:35:11.052Z,15.47
2023-03-01T00:36:22.246Z,13.07
2023-03-01T00:37:34.118Z,14.53
2023-03-01T00:38:39.295Z,15.50
2023-03-01T00:39:41.573Z,17.10
2023-03-01T00:40:52.942Z,15.43
2023-03-01T00:41:56.699Z,13.53
2023-03-01T00:43:17.778Z,15.53
2023-03-01T00:44:23.164Z,14.93
2023-03-01T00:45:34.795Z,14.30
2023-03-01T00:46:36.572Z,15.07
2023-03-01T00:49:22.447Z,17.03
2023-03-01T00:50:30.766Z,16.30
2023-03-01T00:51:39.136Z,15.20
2023-03-01T00:52:46.831Z,15.90
2023-03-01T00:54:24.180Z,16.77
2023-03-01T00:55:33.076Z,14.47
2023-03-01T00:56:41.774Z,15.93
2023-03-01T00:57:52.657Z,16.80
2023-03-01T00:59:00.249Z,16.60
2023-03-01T01:00:06.466Z,14.93
2023-03-01T01:01:24.674Z,16.20
2023-03-01T01:02:32.223Z,16.00
2023-03-01T01:03:41.339Z,17.73
2023-03-01T01:04:44.834Z,17.27
2023-03-01T01:05:55.071Z,17.20
2023-03-01T01:06:57.058Z,15.20
2023-03-01T01:07:59.634Z,15.60
2023-03-01T01:09:10.117Z,15.33
2023-03-01T01:10:18.363Z,14.20
2023-03-01T01:11:23.384Z,15.23
2023-03-01T01:12:25.005Z,14.83
2023-03-01T01:13:26.326Z,16.67
2023-03-01T01:14:27.648Z,15.53
2023-03-01T01:15:29.291Z,17.30
2023-03-01T01:16:31.304Z,17.07
2023-03-01T01:17:32.896Z,15.77
2023-03-01T01:18:34.270Z,15.20
2023-03-01T01:19:35.578Z,17.73
2023-03-01T01:20:37.805Z,16.13
2023-03-01T01:21:39.164Z,15.90
2023-03-01T01:22:40.530Z,16.43
2023-03-01T01:23:42.856Z,15.83
2023-03-01T01:24:44.139Z,15.37
2023-03-01T01:25:45.488Z,17.33
2023-03-01T01:26:47.136Z,14.73
2023-03-01T01:27:48.433Z,17.57
2023-03-01T01:28:50.173Z,14.90
2023-03-01T01:29:53.447Z,15.87
2023-03-01T01:30:54.815Z,17.60
2023-03-01T01:31:56.236Z,16.33
2023-03-01T01:32:57.573Z,17.57
2023-03-01T01:34:00.577Z,17.60
2023-03-01T01:35:01.928Z,19.70
2023-03-01T01:36:03.861Z,16.37
2023-03-01T01:37:08.674Z,16.03
2023-03-01T01:38:10.000Z,15.53
2023-03-01T01:39:14.307Z,19.63
2023-03-01T01:40:15.662Z,17.03
2023-03-01T01:41:17.936Z,17.07
2023-03-01T01:42:19.439Z,16.30
2023-03-01T01:43:20.737Z,15.83
2023-03-01T01:44:24.395Z,15.63
2023-03-01T01:45:28.602Z,16.07
2023-03-01T01:46:32.225Z,18.83
2023-03-01T01:47:33.815Z,16.73
2023-03-01T01:48:41.248Z,16.67
2023-03-01T01:49:45.300Z,17.13
2023-03-01T01:50:50.653Z,18.43
2023-03-01T01:51:54.978Z,19.10
2023-03-01T01:52:56.326Z,16.13
2023-03-01T01:54:01.413Z,15.67
2023-03-01T01:55:28.989Z,19.27
2023-03-01T01:56:30.783Z,20.63
2023-03-01T01:57:52.526Z,18.17
2023-03-01T01:58:54.133Z,17.30
2023-03-01T01:59:57.342Z,15.43
2023-03-01T02:00:58.687Z,17.83
2023-03-01T02:02:01.573Z,17.87
2023-03-01T02:03:09.986Z,16.73
2023-03-01T02:04:11.469Z,17.77
2023-03-01T02:05:25.014Z,16.73
2023-03-01T02:06:32.303Z,18.13
2023-03-01T02:07:33.926Z,19.03
2023-03-01T02:08:37.637Z,17.87
2023-03-01T02:09:39.160Z,16.63
2023-03-01T02:10:41.260Z,18.07
2023-03-01T02:11:43.232Z,18.07
2023-03-01T02:12:44.956Z,16.40
2023-03-01T02:13:47.802Z,17.87
2023-03-01T02:14:49.124Z,15.63
2023-03-01T02:15:50.626Z,19.37
2023-03-01T02:16:52.248Z,17.13
2023-03-01T02:17:54.997Z,18.60
2023-03-01T02:18:57.030Z,18.67
2023-03-01T02:20:01.383Z,18.80
2023-03-01T02:21:05.908Z,18.03
2023-03-01T02:22:12.833Z,16.10
2023-03-01T02:23:14.188Z,19.87
2023-03-01T02:24:29.683Z,18.73
2023-03-01T02:25:57.243Z,17.67
2023-03-01T02:26:58.957Z,17.57
2023-03-01T02:28:06.230Z,19.57
2023-03-01T02:29:07.628Z,18.03
2023-03-01T02:30:09.412Z,18.57
2023-03-01T02:31:30.538Z,18.10
2023-03-01T02:32:31.947Z,17.57
2023-03-01T02:33:34.227Z,18.83
2023-03-01T02:34:36.580Z,18.97
2023-03-01T02:35:39.649Z,20.00
2023-03-01T02:36:52.298Z,20.43
2023-03-01T02:37:53.724Z,19.40
2023-03-01T02:38:57.877Z,18.87
2023-03-01T02:40:00.582Z,19.10
2023-03-01T02:41:03.153Z,19.03
2023-03-01T02:42:05.165Z,17.23
2023-03-01T02:43:09.080Z,18.00
2023-03-01T02:44:10.516Z,19.80
2023-03-01T02:45:11.928Z,18.73
2023-03-01T02:46:17.586Z,17.33
2023-03-01T02:47:18.989Z,39.13
2023-03-01T02:48:20.782Z,25.03
2023-03-01T02:49:27.775Z,26.73
2023-03-01T02:50:29.142Z,23.30
2023-03-01T02:51:53.986Z,22.67
2023-03-01T02:53:11.109Z,19.93
2023-03-01T02:54:31.018Z,19.87
2023-03-01T02:55:32.371Z,21.47
2023-03-01T02:56:34.301Z,20.00
2023-03-01T02:57:37.930Z,20.97
2023-03-01T02:58:46.534Z,17.13
2023-03-01T02:59:49.201Z,18.23
2023-03-01T03:00:51.037Z,18.90
2023-03-01T03:01:52.585Z,19.27
2023-03-01T03:02:54.973Z,19.17
2023-03-01T03:04:00.957Z,18.07
2023-03-01T03:05:13.113Z,18.17
2023-03-01T03:06:14.679Z,23.17
2023-03-01T03:07:16.579Z,20.03
2023-03-01T03:08:24.842Z,17.80
2023-03-01T03:09:26.887Z,19.20
2023-03-01T03:10:29.967Z,19.03
2023-03-01T03:11:31.492Z,19.40
2023-03-01T03:12:32.844Z,20.10
2023-03-01T03:13:34.226Z,18.60
2023-03-01T03:14:35.993Z,21.67
2023-03-01T03:15:37.498Z,19.87
2023-03-01T03:16:50.814Z,19.93
2023-03-01T03:17:53.267Z,19.27
2023-03-01T03:18:54.623Z,19.70
2023-03-01T03:19:55.968Z,20.43
2023-03-01T03:20:57.320Z,19.23
2023-03-01T03:21:58.711Z,20.83
2023-03-01T03:23:00.319Z,20.47
2023-03-01T03:24:01.774Z,20.37
2023-03-01T03:25:03.095Z,17.37
2023-03-01T03:26:05.109Z,22.43
2023-03-01T03:27:06.540Z,19.67
2023-03-01T03:28:11.424Z,19.10
2023-03-01T03:29:12.839Z,19.27
2023-03-01T03:30:17.235Z,21.00
2023-03-01T03:31:18.845Z,20.37
2023-03-01T03:32:20.224Z,19.37
2023-03-01T03:33:21.623Z,19.43
2023-03-01T03:34:22.956Z,18.60
2023-03-01T03:35:30.994Z,19.37
2023-03-01T03:36:32.575Z,19.93
2023-03-01T03:37:52.659Z,20.57
2023-03-01T03:38:54.042Z,20.17
2023-03-01T03:39:55.701Z,19.37
2023-03-01T03:41:04.667Z,18.37
2023-03-01T03:42:06.196Z,20.23
2023-03-01T03:43:08.514Z,21.17
2023-03-01T03:44:09.844Z,19.00
2023-03-01T03:45:11.255Z,19.57
2023-03-01T03:46:12.729Z,19.23
2023-03-01T03:47:14.249Z,22.03
2023-03-01T03:48:15.727Z,23.03
2023-03-01T03:49:17.079Z,22.50
2023-03-01T03:50:18.576Z,19.37
2023-03-01T03:51:19.959Z,20.50
2023-03-01T03:52:21.274Z,19.63
2023-03-01T03:53:24.220Z,18.90
2023-03-01T03:54:25.530Z,19.70
2023-03-01T03:55:31.342Z,20.77
2023-03-01T03:56:33.230Z,19.03
2023-03-01T03:57:34.760Z,20.77
2023-03-01T03:58:36.480Z,22.13
2023-03-01T03:59:37.840Z,21.33
2023-03-01T04:00:41.256Z,18.67
2023-03-01T04:01:42.654Z,21.03
2023-03-01T04:02:44.115Z,20.70
2023-03-01T04:03:47.752Z,20.77
2023-03-01T04:04:50.619Z,20.80
2023-03-01T04:05:52.258Z,24.30
2023-03-01T04:06:53.535Z,23.13
2023-03-01T04:08:02.019Z,19.93
2023-03-01T04:09:03.447Z,21.57
2023-03-01T04:10:05.539Z,19.00
2023-03-01T04:11:26.126Z,23.10
2023-03-01T04:12:27.435Z,20.37
2023-03-01T04:13:28.813Z,22.90
2023-03-01T04:14:30.144Z,20.50
2023-03-01T04:15:32.260Z,22.27
2023-03-01T04:16:34.037Z,18.07
2023-03-01T04:17:35.579Z,23.43
2023-03-01T04:18:36.876Z,19.73
2023-03-01T04:19:38.179Z,21.47
2023-03-01T04:20:39.833Z,20.63
2023-03-01T04:21:41.129Z,20.13
2023-03-01T04:22:42.693Z,20.63
2023-03-01T04:23:44.114Z,19.50
2023-03-01T04:24:45.843Z,22.70
2023-03-01T04:25:54.952Z,21.23
2023-03-01T04:26:56.288Z,21.17
2023-03-01T04:27:57.603Z,20.87
2023-03-01T04:28:58.962Z,21.93
2023-03-01T04:30:00.295Z,23.87
2023-03-01T04:31:13.836Z,20.17
2023-03-01T04:32:17.142Z,23.10
2023-03-01T04:33:18.757Z,21.87
2023-03-01T04:34:20.479Z,21.60
2023-03-01T04:35:21.852Z,22.00
2023-03-01T04:36:24.887Z,22.43
2023-03-01T04:37:26.273Z,23.37
2023-03-01T04:38:27.639Z,21.70
2023-03-01T04:39:29.135Z,23.40
2023-03-01T04:40:30.573Z,21.50
2023-03-01T04:41:31.951Z,19.40
2023-03-01T04:42:33.652Z,21.30
2023-03-01T04:43:35.128Z,22.80
2023-03-01T04:44:36.439Z,23.43
2023-03-01T04:45:37.827Z,21.13
2023-03-01T04:46:39.495Z,19.10
2023-03-01T04:47:41.587Z,21.20
2023-03-01T04:48:44.028Z,23.03
2023-03-01T04:49:45.494Z,20.90
2023-03-01T04:50:46.874Z,23.17
2023-03-01T04:51:48.160Z,23.27
2023-03-01T04:52:49.471Z,19.97
2023-03-01T04:53:51.859Z,22.20
2023-03-01T04:54:53.134Z,20.67
2023-03-01T04:55:55.144Z,22.23
2023-03-01T04:56:56.495Z,22.67
2023-03-01T04:57:57.804Z,25.23
2023-03-01T04:59:01.362Z,23.53
2023-03-01T05:00:20.687Z,22.20
2023-03-01T05:01:24.724Z,24.63
2023-03-01T05:02:26.035Z,22.40
2023-03-01T05:03:28.003Z,23.93
2023-03-01T05:04:29.363Z,24.30
2023-03-01T05:05:35.912Z,25.63
2023-03-01T05:06:37.282Z,21.93
2023-03-01T05:07:38.619Z,21.80
2023-03-01T05:08:40.593Z,20.87
2023-03-01T05:09:41.961Z,19.90
2023-03-01T05:10:43.485Z,25.33
2023-03-01T05:11:45.499Z,24.00
2023-03-01T05:12:47.546Z,21.73
2023-03-01T05:13:50.891Z,24.40
2023-03-01T05:14:52.323Z,25.33
2023-03-01T05:15:58.181Z,23.17
2023-03-01T05:17:04.804Z,23.53
2023-03-01T05:18:12.176Z,22.97
2023-03-01T05:19:16.258Z,21.13
2023-03-01T05:20:18.001Z,24.37
2023-03-01T05:21:19.431Z,25.67
2023-03-01T05:22:20.741Z,24.90
2023-03-01T05:23:22.042Z,23.73
2023-03-01T05:24:23.395Z,22.57
2023-03-01T05:25:24.739Z,23.27
2023-03-01T05:26:29.545Z,22.07
2023-03-01T05:27:31.058Z,22.97
2023-03-01T05:28:32.463Z,23.80
2023-03-01T05:29:35.816Z,20.50
2023-03-01T05:30:39.912Z,23.80
2023-03-01T05:31:41.241Z,25.03
2023-03-01T05:32:44.246Z,26.30
2023-03-01T05:33:46.456Z,25.33
2023-03-01T05:34:47.803Z,22.67
2023-03-01T05:35:49.678Z,22.77
2023-03-01T05:36:53.948Z,24.20
2023-03-01T05:37:55.336Z,23.17
2023-03-01T05:38:56.776Z,22.30
2023-03-01T05:39:58.168Z,22.77
2023-03-01T05:40:59.517Z,23.47
2023-03-01T05:42:02.063Z,23.80
2023-03-01T05:43:06.107Z,25.97
2023-03-01T05:44:07.755Z,24.63
2023-03-01T05:45:10.544Z,21.37
2023-03-01T05:46:14.220Z,21.63
2023-03-01T05:47:15.766Z,24.27
2023-03-01T05:48:17.129Z,22.90
2023-03-01T05:49:18.675Z,26.90
2023-03-01T05:50:21.481Z,25.13
2023-03-01T05:51:23.174Z,22.67
2023-03-01T05:52:24.477Z,24.43
2023-03-01T05:53:27.443Z,23.97
2023-03-01T05:54:28.819Z,26.27
2023-03-01T05:55:30.715Z,25.40
2023-03-01T05:56:33.341Z,25.60
2023-03-01T05:57:34.981Z,23.50
2023-03-01T05:58:36.340Z,23.23
2023-03-01T05:59:37.828Z,26.27
2023-03-01T06:00:39.228Z,24.67
2023-03-01T06:01:43.195Z,25.83
2023-03-01T06:02:44.834Z,23.37
2023-03-01T06:03:46.237Z,24.90
2023-03-01T06:04:47.796Z,26.53
2023-03-01T06:05:49.348Z,24.53
2023-03-01T06:06:50.776Z,24.67
2023-03-01T06:07:52.348Z,22.87
2023-03-01T06:08:54.204Z,22.73
2023-03-01T06:09:55.638Z,23.30
2023-03-01T06:10:57.125Z,25.80
2023-03-01T06:11:58.586Z,23.57
2023-03-01T06:13:00.109Z,25.97
2023-03-01T06:14:01.602Z,24.30
2023-03-01T06:15:03.233Z,23.27
2023-03-01T06:16:08.240Z,23.67
2023-03-01T06:17:09.600Z,25.50
2023-03-01T06:18:10.890Z,23.30
2023-03-01T06:19:12.268Z,23.50
2023-03-01T06:20:15.607Z,26.30
2023-03-01T06:21:17.165Z,25.07
2023-03-01T06:22:18.488Z,25.03
2023-03-01T06:23:19.844Z,26.30
2023-03-01T06:24:21.340Z,26.00
2023-03-01T06:25:32.910Z,27.87
2023-03-01T06:26:34.614Z,27.90
2023-03-01T06:27:36.856Z,26.83
2023-03-01T06:28:38.221Z,24.90
2023-03-01T06:29:41.739Z,24.77
2023-03-01T06:30:43.403Z,26.70
2023-03-01T06:31:45.025Z,23.57
2023-03-01T06:32:46.453Z,24.20
2023-03-01T06:33:47.802Z,29.00
2023-03-01T06:34:49.221Z,24.67
2023-03-01T06:35:50.941Z,26.10
2023-03-01T06:36:52.397Z,24.77
2023-03-01T06:37:53.742Z,25.83
2023-03-01T06:38:55.085Z,23.17
2023-03-01T06:39:56.419Z,23.77
2023-03-01T06:40:57.848Z,28.20
2023-03-01T06:41:59.586Z,24.57
2023-03-01T06:43:01.768Z,23.77
2023-03-01T06:44:03.668Z,23.57
2023-03-01T06:45:06.132Z,23.73
2023-03-01T06:46:07.860Z,22.50
2023-03-01T06:47:09.346Z,27.03
2023-03-01T06:48:10.653Z,21.90
2023-03-01T06:49:12.013Z,23.77
2023-03-01T06:50:14.126Z,22.07
2023-03-01T06:51:15.469Z,25.83
2023-03-01T06:52:16.793Z,22.53
2023-03-01T06:53:18.156Z,24.17
2023-03-01T06:54:19.483Z,24.40
2023-03-01T06:55:20.883Z,23.07
2023-03-01T06:56:22.190Z,21.63
2023-03-01T06:57:23.601Z,24.87
2023-03-01T06:58:24.960Z,26.20
2023-03-01T06:59:26.360Z,24.50
2023-03-01T07:00:28.407Z,27.57
2023-03-01T07:01:30.485Z,23.03
2023-03-01T07:02:35.934Z,25.73
2023-03-01T07:03:37.756Z,25.10
2023-03-01T07:04:39.275Z,24.30
2023-03-01T07:05:40.638Z,22.13
2023-03-01T07:06:42.010Z,23.33
2023-03-01T07:07:43.480Z,25.60
2023-03-01T07:08:44.807Z,25.90
2023-03-01T07:09:46.505Z,24.73
2023-03-01T07:10:47.918Z,22.07
2023-03-01T07:11:49.564Z,24.60
2023-03-01T07:12:51.632Z,20.83
2023-03-01T07:13:53.371Z,22.23
2023-03-01T07:14:54.669Z,24.40
2023-03-01T07:15:56.126Z,24.27
2023-03-01T07:16:57.514Z,23.80
2023-03-01T07:17:58.897Z,23.30
2023-03-01T07:19:00.899Z,26.53
2023-03-01T07:20:02.322Z,23.70
2023-03-01T07:21:07.542Z,23.40
2023-03-01T07:22:10.241Z,25.33
2023-03-01T07:23:11.554Z,23.37
2023-03-01T07:24:12.862Z,23.37
2023-03-01T07:25:14.207Z,23.00
2023-03-01T07:26:15.573Z,24.53
2023-03-01T07:27:17.083Z,23.83
2023-03-01T07:28:18.491Z,23.00
2023-03-01T07:29:19.862Z,24.60
2023-03-01T07:30:21.552Z,23.87
2023-03-01T07:31:22.987Z,22.47
2023-03-01T07:32:24.499Z,22.03
2023-03-01T07:33:26.173Z,22.83
2023-03-01T07:34:27.578Z,26.40
2023-03-01T07:35:29.039Z,24.63
2023-03-01T07:36:30.789Z,23.07
2023-03-01T07:37:32.423Z,22.37
2023-03-01T07:38:34.028Z,23.97
2023-03-01T07:39:35.404Z,22.37
2023-03-01T07:40:36.791Z,23.47
2023-03-01T07:41:38.268Z,23.37
2023-03-01T07:42:39.733Z,23.10
2023-03-01T07:43:41.232Z,23.07
2023-03-01T07:44:42.692Z,21.43
2023-03-01T07:45:44.162Z,23.90
2023-03-01T07:46:45.553Z,22.03
2023-03-01T07:47:46.950Z,24.63
2023-03-01T07:48:48.410Z,23.70
2023-03-01T07:49:49.836Z,22.00
2023-03-01T07:50:51.199Z,23.17
2023-03-01T07:51:52.732Z,24.70
2023-03-01T07:52:54.108Z,22.77
2023-03-01T07:53:56.028Z,24.73
2023-03-01T07:54:57.640Z,27.50
2023-03-01T07:56:03.346Z,24.73
2023-03-01T07:57:04.869Z,24.80
2023-03-01T07:58:06.214Z,24.97
2023-03-01T07:59:07.721Z,20.80
2023-03-01T08:00:10.934Z,22.93
2023-03-01T08:01:16.364Z,20.60
2023-03-01T08:02:17.737Z,22.07
2023-03-01T08:03:19.116Z,22.33
2023-03-01T08:04:20.480Z,22.97
2023-03-01T08:05:23.219Z,23.70
2023-03-01T08:06:24.565Z,23.73
2023-03-01T08:07:25.965Z,20.77
2023-03-01T08:08:27.684Z,24.43
2023-03-01T08:09:29.127Z,21.40
2023-03-01T08:10:30.532Z,22.03
2023-03-01T08:11:31.987Z,21.97
2023-03-01T08:12:33.435Z,22.83
2023-03-01T08:13:35.027Z,31.10
2023-03-01T08:14:36.616Z,23.10
2023-03-01T08:15:38.036Z,22.90
2023-03-01T08:16:39.605Z,22.77
2023-03-01T08:17:41.082Z,24.83
2023-03-01T08:18:42.961Z,21.77
2023-03-01T08:19:44.465Z,21.37
2023-03-01T08:20:46.187Z,20.37
2023-03-01T08:21:47.549Z,21.83
2023-03-01T08:22:48.921Z,21.07
2023-03-01T08:23:50.265Z,24.47
2023-03-01T08:24:51.624Z,20.10
2023-03-01T08:25:53.901Z,22.27
2023-03-01T08:26:55.633Z,21.60
2023-03-01T08:27:57.076Z,20.70
2023-03-01T08:28:58.537Z,23.03
2023-03-01T08:29:59.978Z,22.67
2023-03-01T08:31:01.803Z,20.57
2023-03-01T08:32:03.309Z,21.33
2023-03-01T08:33:04.882Z,20.93
2023-03-01T08:34:07.903Z,21.80
2023-03-01T08:35:09.402Z,22.77
2023-03-01T08:36:10.871Z,22.23
2023-03-01T08:37:12.232Z,21.67
2023-03-01T08:38:13.907Z,23.83
2023-03-01T08:39:16.227Z,22.63
2023-03-01T08:40:17.745Z,19.83
2023-03-01T08:41:19.330Z,23.10
2023-03-01T08:42:20.891Z,22.90
2023-03-01T08:43:26.473Z,21.00
2023-03-01T08:44:28.004Z,21.20
2023-03-01T08:45:29.484Z,22.53
2023-03-01T08:46:38.552Z,22.03
2023-03-01T08:47:40.066Z,21.97
2023-03-01T08:48:43.971Z,24.50
2023-03-01T08:49:45.463Z,20.97
2023-03-01T08:50:47.042Z,19.50
2023-03-01T08:51:48.767Z,21.27
2023-03-01T08:52:50.217Z,22.67
2023-03-01T08:53:51.738Z,21.70
2023-03-01T08:54:53.403Z,22.50
2023-03-01T08:55:54.921Z,23.13
2023-03-01T08:56:56.477Z,22.10
2023-03-01T08:57:59.873Z,22.20
2023-03-01T08:59:01.307Z,21.60
2023-03-01T09:00:04.325Z,22.80
2023-03-01T09:01:09.492Z,22.53
2023-03-01T09:02:15.162Z,20.53
2023-03-01T09:03:16.564Z,21.30
2023-03-01T09:04:18.002Z,20.93
2023-03-01T09:05:20.436Z,24.97
2023-03-01T09:06:22.404Z,24.03
2023-03-01T09:07:29.038Z,20.67
2023-03-01T09:08:30.574Z,23.73
2023-03-01T09:09:32.035Z,22.73
2023-03-01T09:10:33.731Z,20.53
2023-03-01T09:11:35.209Z,20.87
2023-03-01T09:12:36.615Z,23.20
2023-03-01T09:13:38.182Z,21.83
2023-03-01T09:14:39.899Z,23.00
2023-03-01T09:15:41.363Z,23.70
2023-03-01T09:16:43.182Z,24.77
2023-03-01T09:17:45.373Z,22.30
2023-03-01T09:18:50.069Z,24.67
2023-03-01T09:19:51.596Z,22.90
2023-03-01T09:20:53.299Z,24.27
2023-03-01T09:21:54.801Z,23.93
2023-03-01T09:22:56.192Z,22.17
2023-03-01T09:23:58.155Z,22.93
2023-03-01T09:25:00.232Z,22.23
2023-03-01T09:26:01.712Z,23.67
2023-03-01T09:27:03.879Z,20.93
2023-03-01T09:28:05.347Z,24.20
2023-03-01T09:29:06.779Z,21.07
2023-03-01T09:30:09.965Z,23.60
2023-03-01T09:31:13.883Z,23.23
2023-03-01T09:32:15.308Z,21.97
2023-03-01T09:33:17.123Z,22.23
2023-03-01T09:34:24.113Z,22.37
2023-03-01T09:35:25.719Z,20.27
2023-03-01T09:36:27.125Z,21.87
2023-03-01T09:37:28.514Z,22.70
2023-03-01T09:38:30.004Z,22.10
2023-03-01T09:39:32.915Z,21.13
2023-03-01T09:40:34.391Z,22.63
2023-03-01T09:41:59.594Z,22.73
2023-03-01T09:43:01.567Z,21.63
2023-03-01T09:44:06.392Z,26.67
2023-03-01T09:45:12.620Z,24.00
2023-03-01T09:46:17.799Z,21.97
2023-03-01T09:47:27.698Z,21.07
2023-03-01T09:48:30.949Z,21.37
2023-03-01T09:49:34.373Z,21.83
2023-03-01T09:50:37.050Z,22.07
2023-03-01T09:51:38.633Z,23.77
2023-03-01T09:52:40.223Z,21.27
2023-03-01T09:53:41.981Z,21.70
2023-03-01T09:54:43.413Z,23.67
2023-03-01T09:55:47.042Z,21.33
2023-03-01T09:56:55.749Z,20.97
2023-03-01T09:58:03.513Z,23.77
2023-03-01T09:59:15.368Z,23.27
2023-03-01T10:00:19.943Z,24.20
2023-03-01T10:01:21.479Z,23.63
2023-03-01T10:02:37.222Z,24.33
2023-03-01T10:03:48.101Z,21.70
2023-03-01T10:04:51.023Z,24.23
2023-03-01T10:06:34.320Z,25.97
2023-03-01T10:07:54.391Z,22.83
2023-03-01T10:08:55.928Z,21.57
2023-03-01T10:09:58.089Z,21.53
2023-03-01T10:10:59.785Z,22.03
2023-03-01T10:12:02.624Z,22.17
2023-03-01T10:13:20.276Z,22.53
2023-03-01T10:14:40.575Z,25.30
2023-03-01T10:15:45.024Z,25.33
2023-03-01T10:16:52.336Z,22.90
2023-03-01T10:17:57.386Z,21.07
2023-03-01T10:19:03.186Z,24.17
2023-03-01T10:20:16.553Z,20.67
2023-03-01T10:21:19.954Z,25.23
2023-03-01T10:22:32.466Z,24.33
2023-03-01T10:23:35.614Z,21.90
2023-03-01T10:24:37.199Z,24.87
2023-03-01T10:25:47.641Z,23.73
2023-03-01T10:26:54.681Z,25.77
2023-03-01T10:28:01.065Z,23.50
2023-03-01T10:29:08.862Z,22.87
2023-03-01T10:30:28.499Z,23.40
2023-03-01T10:31:38.967Z,21.90
2023-03-01T10:32:40.848Z,22.17
2023-03-01T10:33:42.324Z,22.10
2023-03-01T10:34:43.801Z,22.50
2023-03-01T10:35:45.370Z,22.63
2023-03-01T10:36:51.064Z,23.00
2023-03-01T10:37:59.442Z,22.90
2023-03-01T10:39:06.782Z,24.40
2023-03-01T10:40:10.565Z,24.77
2023-03-01T10:41:15.865Z,21.63
2023-03-01T10:42:23.588Z,21.27
2023-03-01T10:43:44.444Z,26.13
2023-03-01T10:44:47.226Z,23.47
2023-03-01T10:45:48.747Z,25.83
2023-03-01T10:46:59.770Z,23.47
2023-03-01T10:48:13.249Z,22.67
2023-03-01T10:49:16.339Z,23.30
2023-03-01T10:50:21.830Z,20.03
2023-03-01T10:51:23.241Z,21.80
2023-03-01T10:52:32.874Z,21.77
2023-03-01T10:53:36.065Z,23.90
2023-03-01T10:54:37.583Z,24.47
2023-03-01T10:55:40.645Z,22.57
2023-03-01T10:56:49.779Z,21.70
2023-03-01T10:57:51.840Z,23.30
2023-03-01T10:58:59.456Z,22.37
2023-03-01T11:00:17.805Z,23.03
2023-03-01T11:01:19.274Z,19.63
2023-03-01T11:02:30.947Z,21.57
2023-03-01T11:03:32.293Z,25.10
2023-03-01T11:04:33.748Z,21.57
2023-03-01T11:05:35.283Z,20.67
2023-03-01T11:06:37.785Z,20.23
2023-03-01T11:07:48.416Z,20.77
2023-03-01T11:08:50.770Z,20.40
2023-03-01T11:09:52.165Z,22.03
2023-03-01T11:11:04.523Z,18.70
2023-03-01T11:12:06.835Z,21.57
2023-03-01T11:13:08.144Z,18.70
2023-03-01T11:14:26.477Z,20.23
2023-03-01T11:15:29.537Z,18.50
2023-03-01T11:16:35.971Z,19.30
2023-03-01T11:17:53.213Z,21.87
2023-03-01T11:19:00.876Z,19.20
2023-03-01T11:20:14.436Z,18.83
2023-03-01T11:21:18.816Z,20.43
2023-03-01T11:22:21.744Z,21.03
2023-03-01T11:23:23.538Z,19.37
2023-03-01T11:24:28.027Z,19.23
2023-03-01T11:25:37.570Z,19.03
2023-03-01T11:26:41.352Z,20.77
2023-03-01T11:27:44.318Z,22.60
2023-03-01T11:28:48.128Z,21.10
2023-03-01T11:30:07.004Z,19.80
2023-03-01T11:31:13.092Z,20.83
2023-03-01T11:32:15.707Z,20.73
2023-03-01T11:33:34.068Z,22.00
2023-03-01T11:34:35.505Z,21.40
2023-03-01T11:35:39.004Z,23.40
2023-03-01T11:36:47.400Z,23.30
2023-03-01T11:38:00.370Z,23.30
2023-03-01T11:39:17.527Z,22.30
2023-03-01T11:40:26.935Z,22.30
2023-03-01T11:41:31.313Z,22.67
2023-03-01T11:42:42.226Z,20.97
2023-03-01T11:43:46.979Z,20.90
2023-03-01T11:44:50.515Z,20.40
2023-03-01T11:45:51.896Z,22.57
2023-03-01T11:47:04.967Z,21.87
2023-03-01T11:48:49.456Z,18.93
2023-03-01T11:50:09.890Z,20.20
2023-03-01T11:51:16.851Z,20.03
2023-03-01T11:52:37.424Z,19.97
2023-03-01T11:53:54.181Z,22.43
2023-03-01T11:55:06.424Z,20.87
2023-03-01T11:56:17.486Z,23.60
2023-03-01T11:57:42.289Z,27.20
2023-03-01T11:58:50.476Z,22.30
2023-03-01T11:59:57.793Z,22.87
2023-03-01T12:00:59.385Z,20.37
2023-03-01T12:02:09.715Z,24.70
2023-03-01T12:03:24.517Z,24.17
2023-03-01T12:04:25.998Z,20.87
2023-03-01T12:05:46.498Z,27.27
2023-03-01T12:06:54.710Z,27.00
2023-03-01T12:08:02.719Z,24.60
2023-03-01T12:09:07.344Z,22.63
2023-03-01T12:10:26.957Z,28.67
2023-03-01T12:11:28.531Z,23.07
2023-03-01T12:12:39.650Z,22.60
2023-03-01T12:13:50.773Z,22.07
2023-03-01T12:14:59.781Z,23.40
2023-03-01T12:16:23.095Z,20.07
2023-03-01T12:17:33.901Z,25.13
2023-03-01T12:18:54.254Z,20.37
2023-03-01T12:19:55.743Z,22.83
2023-03-01T12:21:15.139Z,23.27
2023-03-01T12:22:29.789Z,22.37
2023-03-01T12:23:56.711Z,22.60
2023-03-01T12:25:17.586Z,20.70
2023-03-01T12:26:36.625Z,23.87
2023-03-01T12:27:38.344Z,20.57
2023-03-01T12:28:45.851Z,20.57
2023-03-01T12:30:06.351Z,21.10
2023-03-01T12:31:08.130Z,22.00
2023-03-01T12:32:21.600Z,20.97
2023-03-01T12:33:28.776Z,20.90
2023-03-01T12:34:43.364Z,18.97
2023-03-01T12:36:06.274Z,17.93
2023-03-01T12:37:10.800Z,20.03
2023-03-01T12:38:15.087Z,21.53
2023-03-01T12:39:23.076Z,19.47
2023-03-01T12:40:34.521Z,19.70
2023-03-01T12:41:44.697Z,19.87
2023-03-01T12:42:54.744Z,18.87
2023-03-01T12:44:04.025Z,18.47
2023-03-01T12:45:24.091Z,17.43
2023-03-01T12:46:44.873Z,20.77
2023-03-01T12:47:46.482Z,17.33
2023-03-01T12:48:48.123Z,18.93
2023-03-01T12:49:56.604Z,17.70
2023-03-01T12:51:04.272Z,18.07
2023-03-01T12:52:38.160Z,19.53
2023-03-01T12:53:45.221Z,17.37
2023-03-01T12:54:47.250Z,21.10
2023-03-01T12:55:48.925Z,18.43
2023-03-01T12:56:53.397Z,19.40
2023-03-01T12:58:15.804Z,16.40
2023-03-01T12:59:31.386Z,16.53
2023-03-01T13:00:46.069Z,16.97
2023-03-01T13:01:54.614Z,19.03
2023-03-01T13:03:01.594Z,19.20
2023-03-01T13:04:15.323Z,20.10
2023-03-01T13:05:35.843Z,20.50
2023-03-01T13:06:46.972Z,19.17
2023-03-01T13:07:57.111Z,20.40
2023-03-01T13:09:10.997Z,21.73
2023-03-01T13:10:19.357Z,20.73
2023-03-01T13:11:22.807Z,19.80
2023-03-01T13:12:42.960Z,18.40
2023-03-01T13:13:44.473Z,18.97
2023-03-01T13:14:46.921Z,19.00
2023-03-01T13:15:49.738Z,18.97
2023-03-01T13:16:52.214Z,19.40
2023-03-01T13:17:53.841Z,19.87
2023-03-01T13:19:30.166Z,21.20
2023-03-01T13:20:33.640Z,20.63
2023-03-01T13:21:35.268Z,19.77
2023-03-01T13:22:49.804Z,20.20
2023-03-01T13:23:54.735Z,20.23
2023-03-01T13:25:16.672Z,21.60
2023-03-01T13:26:18.897Z,20.20
2023-03-01T13:27:23.979Z,19.90
2023-03-01T13:28:35.109Z,20.77
2023-03-01T13:29:46.496Z,20.00
2023-03-01T13:30:48.062Z,19.83
2023-03-01T13:31:52.632Z,18.63
2023-03-01T13:33:14.406Z,17.57
2023-03-01T13:34:34.820Z,15.20
2023-03-01T13:35:43.663Z,15.70
2023-03-01T13:36:48.948Z,16.20
2023-03-01T13:37:50.425Z,18.20
2023-03-01T13:38:54.965Z,19.20
2023-03-01T13:39:58.568Z,14.23
2023-03-01T13:41:01.959Z,14.13
2023-03-01T13:42:04.464Z,18.03
2023-03-01T13:43:28.990Z,18.97
2023-03-01T13:44:35.355Z,17.07
2023-03-01T13:45:41.248Z,17.80
2023-03-01T13:46:44.597Z,18.40
2023-03-01T13:47:48.122Z,17.77
2023-03-01T13:48:54.644Z,16.70
2023-03-01T13:50:00.402Z,15.67
2023-03-01T13:51:03.791Z,16.40
2023-03-01T13:52:06.629Z,14.93
2023-03-01T13:53:08.139Z,15.70
2023-03-01T13:54:13.131Z,14.93
2023-03-01T13:55:16.035Z,15.67
2023-03-01T13:56:22.584Z,14.17
2023-03-01T13:57:27.017Z,15.40